createdAt,value
2023-03-29T00:02:14.340Z,3.60
2023-03-29T00:04:41.453Z,3.60
2023-03-29T00:07:08.811Z,4.43
2023-03-29T00:09:35.904Z,3.00
2023-03-29T00:12:03.120Z,3.42
2023-03-29T00:14:31.107Z,2.97
2023-03-29T00:16:58.523Z,3.10
2023-03-29T00:19:25.638Z,3.15
2023-03-29T00:21:52.478Z,3.42
2023-03-29T00:24:21.451Z,3.08
2023-03-29T00:26:48.751Z,3.50
2023-03-29T00:29:16.748Z,4.25
2023-03-29T00:31:46.097Z,4.22
2023-03-29T00:34:13.060Z,2.97
2023-03-29T00:36:40.552Z,3.13
2023-03-29T00:39:07.623Z,3.90
2023-03-29T00:41:34.607Z,3.58
2023-03-29T00:44:04.149Z,3.55
2023-03-29T00:46:31.639Z,4.03
2023-03-29T00:49:07.317Z,3.80
2023-03-29T00:51:36.591Z,4.00
2023-03-29T00:54:05.777Z,3.45
2023-03-29T00:56:37.279Z,3.80
2023-03-29T00:59:07.503Z,3.83
2023-03-29T01:01:46.001Z,4.00
2023-03-29T01:04:18.708Z,3.83
2023-03-29T01:07:04.655Z,3.67
2023-03-29T01:09:34.144Z,4.25
2023-03-29T01:12:03.661Z,3.55
2023-03-29T01:14:56.622Z,4.00
2023-03-29T01:17:25.643Z,3.88
2023-03-29T01:19:58.312Z,3.50
2023-03-29T01:22:39.436Z,4.03
2023-03-29T01:25:35.842Z,3.90
2023-03-29T01:28:05.798Z,3.38
2023-03-29T01:30:54.109Z,3.38
2023-03-29T01:33:23.668Z,3.38
2023-03-29T01:36:02.806Z,3.80
2023-03-29T01:38:35.002Z,3.58
2023-03-29T01:41:03.699Z,3.80
2023-03-29T01:43:41.296Z,4.15
2023-03-29T01:46:42.187Z,3.90
2023-03-29T01:49:17.626Z,3.50
2023-03-29T01:51:53.906Z,3.75
2023-03-29T01:54:32.080Z,4.22
2023-03-29T01:57:00.091Z,3.65
2023-03-29T01:59:29.880Z,4.05
2023-03-29T02:02:02.625Z,3.95
2023-03-29T02:04:34.335Z,3.70
2023-03-29T02:09:29.664Z,3.65
2023-03-29T02:11:59.666Z,3.85
2023-03-29T02:14:27.056Z,3.85
2023-03-29T02:16:53.855Z,3.40
2023-03-29T02:19:21.869Z,4.97
2023-03-29T02:22:09.674Z,5.10
2023-03-29T02:24:37.569Z,4.68
2023-03-29T02:27:04.965Z,4.32
2023-03-29T02:29:32.016Z,5.07
2023-03-29T02:32:08.577Z,4.35
2023-03-29T02:34:47.772Z,4.63
2023-03-29T02:37:18.884Z,5.10
2023-03-29T02:39:49.743Z,4.82
2023-03-29T02:42:20.334Z,4.82
2023-03-29T02:44:50.286Z,4.65
2023-03-29T02:47:22.444Z,5.47
2023-03-29T02:49:50.638Z,6.07
2023-03-29T02:52:22.247Z,6.07
2023-03-29T02:57:16.013Z,6.80
2023-03-29T02:59:44.782Z,6.82
2023-03-29T03:02:12.109Z,6.90
2023-03-29T03:04:39.677Z,6.38
2023-03-29T03:07:06.698Z,7.32
2023-03-29T03:09:33.886Z,13.85
2023-03-29T03:12:01.154Z,33.35
2023-03-29T03:14:28.359Z,25.13
2023-03-29T03:16:57.999Z,15.93
2023-03-29T03:19:24.970Z,13.07
2023-03-29T03:21:52.096Z,7.63
2023-03-29T03:24:19.200Z,7.18
2023-03-29T03:26:46.461Z,7.57
2023-03-29T03:29:15.612Z,6.10
2023-03-29T03:32:02.368Z,5.15
2023-03-29T03:34:49.753Z,5.75
2023-03-29T03:37:16.702Z,5.80
2023-03-29T03:39:43.636Z,5.30
2023-03-29T03:42:11.317Z,5.93
2023-03-29T03:44:42.666Z,7.38
2023-03-29T03:47:29.508Z,9.20
2023-03-29T03:50:01.927Z,10.93
2023-03-29T03:52:29.053Z,11.25
2023-03-29T03:54:56.115Z,10.35
2023-03-29T03:57:42.244Z,8.85
2023-03-29T04:00:19.859Z,8.07
2023-03-29T04:02:56.447Z,8.02
2023-03-29T04:05:23.792Z,8.93
2023-03-29T04:07:51.121Z,9.63
2023-03-29T04:10:34.460Z,10.45
2023-03-29T04:13:08.569Z,10.93
2023-03-29T04:15:50.046Z,9.95
2023-03-29T04:18:17.554Z,9.63
2023-03-29T04:20:48.035Z,9.60
2023-03-29T04:23:18.972Z,10.32
2023-03-29T04:25:45.937Z,11.55
2023-03-29T04:28:32.865Z,11.07
2023-03-29T04:31:19.690Z,11.82
2023-03-29T04:33:53.438Z,12.63
2023-03-29T04:36:20.610Z,9.93
2023-03-29T04:38:48.137Z,10.55
2023-03-29T04:41:16.399Z,11.48
2023-03-29T04:43:58.707Z,10.85
2023-03-29T04:46:27.538Z,11.77
2023-03-29T04:49:14.419Z,14.48
2023-03-29T04:51:48.030Z,12.68
2023-03-29T04:54:18.372Z,20.77
2023-03-29T04:57:06.751Z,18.92
2023-03-29T04:59:43.122Z,15.77
2023-03-29T05:02:32.475Z,17.92
2023-03-29T05:04:59.663Z,18.92
2023-03-29T05:07:27.119Z,17.02
2023-03-29T05:09:54.273Z,18.58
2023-03-29T05:12:21.587Z,19.40
2023-03-29T05:14:53.448Z,18.25
2023-03-29T05:17:23.947Z,18.50
2023-03-29T05:19:51.307Z,13.50
2023-03-29T05:22:21.730Z,11.60
2023-03-29T05:24:48.922Z,17.27
2023-03-29T05:27:21.137Z,14.00
2023-03-29T05:29:59.290Z,8.93
2023-03-29T05:32:38.185Z,8.35
2023-03-29T05:37:35.159Z,7.57
2023-03-29T05:40:07.195Z,7.97
2023-03-29T05:42:44.227Z,9.23
2023-03-29T05:45:11.790Z,11.13
2023-03-29T05:47:40.113Z,12.82
2023-03-29T05:50:09.818Z,13.57
2023-03-29T05:52:37.728Z,14.00
2023-03-29T05:55:05.532Z,10.82
2023-03-29T05:57:32.614Z,9.40
2023-03-29T05:59:59.571Z,9.68
2023-03-29T06:02:28.694Z,9.63
2023-03-29T06:04:55.845Z,10.50
2023-03-29T06:07:31.413Z,8.60
2023-03-29T06:10:18.707Z,9.10
2023-03-29T06:12:49.680Z,8.95
2023-03-29T06:15:19.869Z,8.75
2023-03-29T06:17:50.112Z,7.80
2023-03-29T06:20:18.551Z,7.93
2023-03-29T06:22:50.395Z,6.68
2023-03-29T06:25:17.701Z,7.65
2023-03-29T06:27:47.630Z,7.00
2023-03-29T06:30:17.067Z,7.30
